sensor_id;sensor_type;location;lat;lon;timestamp;temperature;humidity
13174;DHT22;6652;48.802;9.190;2023-07-30T00:24:14;18.70;99.90
13174;DHT22;6652;48.802;9.190;2023-07-30T00:26:41;18.70;99.90
13174;DHT22;6652;48.802;9.190;2023-07-30T00:29:07;18.70;99.90
13174;DHT22;6652;48.802;9.190;2023-07-30T00:31:34;18.60;99.90
13174;DHT22;6652;48.802;9.190;2023-07-30T00:34:01;18.60;99.90
13174;DHT22;6652;48.802;9.190;2023-07-30T00:36:28;18.50;99.90
13174;DHT22;6652;48.802;9.190;2023-07-30T00:38:55;18.60;99.90
13174;DHT22;6652;48.802;9.190;2023-07-30T00:41:23;18.60;99.90
13174;DHT22;6652;48.802;9.190;2023-07-30T00:43:49;18.60;99.90
13174;DHT22;6652;48.802;9.190;2023-07-30T00:46:16;19.90;99.90
13174;DHT22;6652;48.802;9.190;2023-07-30T00:48:43;18.60;99.90
13174;DHT22;6652;48.802;9.190;2023-07-30T00:51:11;18.60;99.90
13174;DHT22;6652;48.802;9.190;2023-07-30T00:53:39;18.50;99.90
13174;DHT22;6652;48.802;9.190;2023-07-30T00:56:06;18.60;99.90
13174;DHT22;6652;48.802;9.190;2023-07-30T00:58:35;19.70;99.90
13174;DHT22;6652;48.802;9.190;2023-07-30T01:01:02;18.40;99.90
13174;DHT22;6652;48.802;9.190;2023-07-30T01:03:29;18.40;99.90
13174;DHT22;6652;48.802;9.190;2023-07-30T01:05:56;18.40;99.90
13174;DHT22;6652;48.802;9.190;2023-07-30T01:08:23;19.10;99.90
13174;DHT22;6652;48.802;9.190;2023-07-30T01:10:50;18.90;99.90
13174;DHT22;6652;48.802;9.190;2023-07-30T01:13:17;18.40;99.90
13174;DHT22;6652;48.802;9.190;2023-07-30T01:15:47;18.30;99.90
13174;DHT22;6652;48.802;9.190;2023-07-30T01:18:14;18.10;99.90
13174;DHT22;6652;48.802;9.190;2023-07-30T01:20:41;18.90;99.90
13174;DHT22;6652;48.802;9.190;2023-07-30T01:23:09;18.50;99.90
13174;DHT22;6652;48.802;9.190;2023-07-30T01:25:36;18.50;99.90
13174;DHT22;6652;48.802;9.190;2023-07-30T01:28:05;18.50;99.90
13174;DHT22;6652;48.802;9.190;2023-07-30T01:30:37;18.60;99.90
13174;DHT22;6652;48.802;9.190;2023-07-30T01:33:05;18.60;99.90
13174;DHT22;6652;48.802;9.190;2023-07-30T01:35:32;18.70;99.90
13174;DHT22;6652;48.802;9.190;2023-07-30T01:38:00;18.70;99.90
13174;DHT22;6652;48.802;9.190;2023-07-30T01:40:32;18.70;99.90
13174;DHT22;6652;48.802;9.190;2023-07-30T01:42:59;18.70;99.90
13174;DHT22;6652;48.802;9.190;2023-07-30T01:45:26;18.80;99.90
13174;DHT22;6652;48.802;9.190;2023-07-30T01:47:52;18.80;99.90
13174;DHT22;6652;48.802;9.190;2023-07-30T01:50:19;18.70;99.90
13174;DHT22;6652;48.802;9.190;2023-07-30T01:52:46;18.80;99.90
13174;DHT22;6652;48.802;9.190;2023-07-30T01:55:13;18.80;99.90
13174;DHT22;6652;48.802;9.190;2023-07-30T01:57:41;18.80;99.90
13174;DHT22;6652;48.802;9.190;2023-07-30T02:00:08;18.80;99.90
13174;DHT22;6652;48.802;9.190;2023-07-30T02:02:35;18.90;99.90
13174;DHT22;6652;48.802;9.190;2023-07-30T02:05:02;18.90;99.90
13174;DHT22;6652;48.802;9.190;2023-07-30T02:07:29;18.80;99.90
13174;DHT22;6652;48.802;9.190;2023-07-30T02:09:56;18.90;99.90
13174;DHT22;6652;48.802;9.190;2023-07-30T02:12:23;18.80;99.90
13174;DHT22;6652;48.802;9.190;2023-07-30T02:14:51;18.90;99.90
13174;DHT22;6652;48.802;9.190;2023-07-30T02:17:18;18.90;99.90
13174;DHT22;6652;48.802;9.190;2023-07-30T02:19:45;18.90;99.90
13174;DHT22;6652;48.802;9.190;2023-07-30T02:22:11;18.80;99.90
13174;DHT22;6652;48.802;9.190;2023-07-30T02:24:38;18.90;99.90
13174;DHT22;6652;48.802;9.190;2023-07-30T02:27:05;18.90;99.90
13174;DHT22;6652;48.802;9.190;2023-07-30T02:29:32;18.80;99.90
13174;DHT22;6652;48.802;9.190;2023-07-30T02:32:00;18.80;99.90
13174;DHT22;6652;48.802;9.190;2023-07-30T02:34:27;18.80;99.90
13174;DHT22;6652;48.802;9.190;2023-07-30T02:36:53;18.70;99.90
13174;DHT22;6652;48.802;9.190;2023-07-30T02:39:20;19.40;99.90
13174;DHT22;6652;48.802;9.190;2023-07-30T02:41:47;19.00;99.90
13174;DHT22;6652;48.802;9.190;2023-07-30T02:44:14;18.70;99.90
13174;DHT22;6652;48.802;9.190;2023-07-30T02:46:40;18.70;99.90
13174;DHT22;6652;48.802;9.190;2023-07-30T02:49:09;18.80;99.90
13174;DHT22;6652;48.802;9.190;2023-07-30T02:51:35;18.70;99.90
13174;DHT22;6652;48.802;9.190;2023-07-30T02:54:04;18.70;99.90
13174;DHT22;6652;48.802;9.190;2023-07-30T02:56:32;18.80;99.90
13174;DHT22;6652;48.802;9.190;2023-07-30T02:58:59;18.70;99.90
13174;DHT22;6652;48.802;9.190;2023-07-30T03:01:26;18.70;99.90
13174;DHT22;6652;48.802;9.190;2023-07-30T03:03:53;18.60;99.90
13174;DHT22;6652;48.802;9.190;2023-07-30T03:06:21;18.60;99.90
13174;DHT22;6652;48.802;9.190;2023-07-30T03:08:48;18.40;99.90
13174;DHT22;6652;48.802;9.190;2023-07-30T03:11:14;18.50;99.90
13174;DHT22;6652;48.802;9.190;2023-07-30T03:13:41;18.40;99.90
13174;DHT22;6652;48.802;9.190;2023-07-30T03:16:08;18.30;99.90
13174;DHT22;6652;48.802;9.190;2023-07-30T03:18:35;18.30;99.90
13174;DHT22;6652;48.802;9.190;2023-07-30T03:21:02;18.30;99.90
13174;DHT22;6652;48.802;9.190;2023-07-30T03:23:30;18.30;99.90
13174;DHT22;6652;48.802;9.190;2023-07-30T03:25:58;18.30;99.90
13174;DHT22;6652;48.802;9.190;2023-07-30T03:28:25;18.40;99.90
13174;DHT22;6652;48.802;9.190;2023-07-30T03:30:52;18.40;99.90
13174;DHT22;6652;48.802;9.190;2023-07-30T03:33:19;18.50;99.90
13174;DHT22;6652;48.802;9.190;2023-07-30T03:35:46;18.50;99.90
13174;DHT22;6652;48.802;9.190;2023-07-30T03:38:13;18.40;99.90
13174;DHT22;6652;48.802;9.190;2023-07-30T03:40:41;18.40;99.90
13174;DHT22;6652;48.802;9.190;2023-07-30T03:43:08;18.40;99.90
13174;DHT22;6652;48.802;9.190;2023-07-30T03:45:35;19.50;99.90
13174;DHT22;6652;48.802;9.190;2023-07-30T03:48:02;18.40;99.90
13174;DHT22;6652;48.802;9.190;2023-07-30T03:50:28;18.30;99.90
13174;DHT22;6652;48.802;9.190;2023-07-30T03:52:55;18.40;99.90
13174;DHT22;6652;48.802;9.190;2023-07-30T03:55:23;18.30;99.90
13174;DHT22;6652;48.802;9.190;2023-07-30T03:57:51;18.40;99.90
13174;DHT22;6652;48.802;9.190;2023-07-30T04:00:18;18.70;99.90
13174;DHT22;6652;48.802;9.190;2023-07-30T04:02:45;18.50;99.90
13174;DHT22;6652;48.802;9.190;2023-07-30T04:05:12;18.50;99.90
13174;DHT22;6652;48.802;9.190;2023-07-30T04:07:38;18.00;99.90
13174;DHT22;6652;48.802;9.190;2023-07-30T04:10:06;18.60;99.90
13174;DHT22;6652;48.802;9.190;2023-07-30T04:12:33;18.60;99.90
13174;DHT22;6652;48.802;9.190;2023-07-30T04:15:02;18.60;99.90
13174;DHT22;6652;48.802;9.190;2023-07-30T04:17:28;18.70;99.90
13174;DHT22;6652;48.802;9.190;2023-07-30T04:19:55;18.70;99.90
13174;DHT22;6652;48.802;9.190;2023-07-30T04:22:22;18.80;99.90
13174;DHT22;6652;48.802;9.190;2023-07-30T04:24:49;18.80;99.90
13174;DHT22;6652;48.802;9.190;2023-07-30T04:27:15;18.80;99.90
13174;DHT22;6652;48.802;9.190;2023-07-30T04:29:42;18.70;99.90
13174;DHT22;6652;48.802;9.190;2023-07-30T04:32:10;18.70;99.90
13174;DHT22;6652;48.802;9.190;2023-07-30T04:34:37;18.70;99.90
13174;DHT22;6652;48.802;9.190;2023-07-30T04:37:05;18.70;99.90
13174;DHT22;6652;48.802;9.190;2023-07-30T04:39:32;18.70;99.90
13174;DHT22;6652;48.802;9.190;2023-07-30T04:41:59;18.70;99.90
13174;DHT22;6652;48.802;9.190;2023-07-30T04:44:26;18.70;99.90
13174;DHT22;6652;48.802;9.190;2023-07-30T04:46:53;18.70;99.90
13174;DHT22;6652;48.802;9.190;2023-07-30T04:49:21;18.80;99.90
13174;DHT22;6652;48.802;9.190;2023-07-30T04:51:48;18.80;99.90
13174;DHT22;6652;48.802;9.190;2023-07-30T04:54:15;18.80;99.90
13174;DHT22;6652;48.802;9.190;2023-07-30T04:56:41;18.80;99.90
13174;DHT22;6652;48.802;9.190;2023-07-30T04:59:08;18.80;99.90
13174;DHT22;6652;48.802;9.190;2023-07-30T05:01:35;18.80;99.90
13174;DHT22;6652;48.802;9.190;2023-07-30T05:04:02;18.80;99.90
13174;DHT22;6652;48.802;9.190;2023-07-30T05:06:30;18.90;99.90
13174;DHT22;6652;48.802;9.190;2023-07-30T05:08:57;18.90;99.90
13174;DHT22;6652;48.802;9.190;2023-07-30T05:11:23;19.00;99.90
13174;DHT22;6652;48.802;9.190;2023-07-30T05:13:50;19.00;99.90
13174;DHT22;6652;48.802;9.190;2023-07-30T05:16:17;19.00;99.90
13174;DHT22;6652;48.802;9.190;2023-07-30T05:18:44;19.00;99.90
13174;DHT22;6652;48.802;9.190;2023-07-30T05:21:11;19.00;99.90
13174;DHT22;6652;48.802;9.190;2023-07-30T05:23:39;19.10;99.90
13174;DHT22;6652;48.802;9.190;2023-07-30T05:26:06;19.10;99.90
13174;DHT22;6652;48.802;9.190;2023-07-30T05:28:33;19.00;99.90
13174;DHT22;6652;48.802;9.190;2023-07-30T05:30:59;19.00;99.90
13174;DHT22;6652;48.802;9.190;2023-07-30T05:33:26;19.30;99.90
13174;DHT22;6652;48.802;9.190;2023-07-30T05:35:53;19.00;99.90
13174;DHT22;6652;48.802;9.190;2023-07-30T05:38:20;19.00;99.90
13174;DHT22;6652;48.802;9.190;2023-07-30T05:40:48;19.00;99.90
13174;DHT22;6652;48.802;9.190;2023-07-30T05:43:15;19.00;99.90
13174;DHT22;6652;48.802;9.190;2023-07-30T05:45:42;19.00;99.90
13174;DHT22;6652;48.802;9.190;2023-07-30T05:48:09;19.00;99.90
13174;DHT22;6652;48.802;9.190;2023-07-30T05:50:36;19.00;99.90
13174;DHT22;6652;48.802;9.190;2023-07-30T05:53:03;19.10;99.90
13174;DHT22;6652;48.802;9.190;2023-07-30T05:55:29;19.20;99.90
13174;DHT22;6652;48.802;9.190;2023-07-30T05:57:58;19.10;99.90
13174;DHT22;6652;48.802;9.190;2023-07-30T06:00:24;19.20;99.90
13174;DHT22;6652;48.802;9.190;2023-07-30T06:02:51;19.20;99.90
13174;DHT22;6652;48.802;9.190;2023-07-30T06:05:18;19.40;99.90
13174;DHT22;6652;48.802;9.190;2023-07-30T06:07:45;19.50;99.90
13174;DHT22;6652;48.802;9.190;2023-07-30T06:10:11;19.80;99.90
13174;DHT22;6652;48.802;9.190;2023-07-30T06:12:38;20.10;99.90
13174;DHT22;6652;48.802;9.190;2023-07-30T06:15:09;21.00;99.90
13174;DHT22;6652;48.802;9.190;2023-07-30T06:17:36;20.80;99.90
13174;DHT22;6652;48.802;9.190;2023-07-30T06:20:03;21.00;99.90
13174;DHT22;6652;48.802;9.190;2023-07-30T06:22:31;21.00;99.90
13174;DHT22;6652;48.802;9.190;2023-07-30T06:24:58;20.90;99.90
13174;DHT22;6652;48.802;9.190;2023-07-30T06:27:25;20.80;99.90
13174;DHT22;6652;48.802;9.190;2023-07-30T06:29:51;20.80;99.90
13174;DHT22;6652;48.802;9.190;2023-07-30T06:32:20;20.70;99.90
13174;DHT22;6652;48.802;9.190;2023-07-30T06:34:47;20.70;99.90
13174;DHT22;6652;48.802;9.190;2023-07-30T06:37:13;20.60;99.90
13174;DHT22;6652;48.802;9.190;2023-07-30T06:39:40;20.70;99.90
13174;DHT22;6652;48.802;9.190;2023-07-30T06:42:07;21.70;99.90
13174;DHT22;6652;48.802;9.190;2023-07-30T06:44:34;23.10;99.90
13174;DHT22;6652;48.802;9.190;2023-07-30T06:47:01;24.70;99.90
13174;DHT22;6652;48.802;9.190;2023-07-30T06:49:29;26.30;99.90
13174;DHT22;6652;48.802;9.190;2023-07-30T06:51:59;26.90;99.90
13174;DHT22;6652;48.802;9.190;2023-07-30T06:54:26;26.40;99.90
13174;DHT22;6652;48.802;9.190;2023-07-30T06:56:53;25.80;99.90
13174;DHT22;6652;48.802;9.190;2023-07-30T06:59:20;25.20;99.90
13174;DHT22;6652;48.802;9.190;2023-07-30T07:01:47;24.70;99.90
13174;DHT22;6652;48.802;9.190;2023-07-30T07:04:14;24.10;99.90
13174;DHT22;6652;48.802;9.190;2023-07-30T07:06:42;23.60;99.90
13174;DHT22;6652;48.802;9.190;2023-07-30T07:09:08;23.10;99.90
13174;DHT22;6652;48.802;9.190;2023-07-30T07:11:35;22.80;99.90
13174;DHT22;6652;48.802;9.190;2023-07-30T07:14:03;22.60;99.90
13174;DHT22;6652;48.802;9.190;2023-07-30T07:16:30;22.20;99.90
13174;DHT22;6652;48.802;9.190;2023-07-30T07:18:56;22.00;99.90
13174;DHT22;6652;48.802;9.190;2023-07-30T07:21:23;22.10;99.90
13174;DHT22;6652;48.802;9.190;2023-07-30T07:23:53;22.00;99.90
13174;DHT22;6652;48.802;9.190;2023-07-30T07:26:20;21.80;99.90
13174;DHT22;6652;48.802;9.190;2023-07-30T07:28:47;21.60;99.90
13174;DHT22;6652;48.802;9.190;2023-07-30T07:31:14;21.60;99.90
13174;DHT22;6652;48.802;9.190;2023-07-30T07:33:41;21.60;99.90
13174;DHT22;6652;48.802;9.190;2023-07-30T07:36:10;21.50;99.90
13174;DHT22;6652;48.802;9.190;2023-07-30T07:38:37;21.50;99.90
13174;DHT22;6652;48.802;9.190;2023-07-30T07:41:05;21.40;99.90
13174;DHT22;6652;48.802;9.190;2023-07-30T07:43:31;21.20;99.90
13174;DHT22;6652;48.802;9.190;2023-07-30T07:45:58;21.00;99.90
13174;DHT22;6652;48.802;9.190;2023-07-30T07:48:25;20.90;99.90
13174;DHT22;6652;48.802;9.190;2023-07-30T07:50:52;20.70;99.90
13174;DHT22;6652;48.802;9.190;2023-07-30T07:53:18;20.70;99.90
13174;DHT22;6652;48.802;9.190;2023-07-30T07:55:45;20.60;99.90
13174;DHT22;6652;48.802;9.190;2023-07-30T07:58:13;20.60;99.90
13174;DHT22;6652;48.802;9.190;2023-07-30T08:00:40;20.60;99.90
13174;DHT22;6652;48.802;9.190;2023-07-30T08:03:07;20.70;99.90
13174;DHT22;6652;48.802;9.190;2023-07-30T08:05:33;20.90;99.90
13174;DHT22;6652;48.802;9.190;2023-07-30T08:08:01;21.20;99.90
13174;DHT22;6652;48.802;9.190;2023-07-30T08:10:27;21.50;99.90
13174;DHT22;6652;48.802;9.190;2023-07-30T08:12:54;21.70;99.90
13174;DHT22;6652;48.802;9.190;2023-07-30T08:15:22;21.90;99.90
13174;DHT22;6652;48.802;9.190;2023-07-30T08:17:49;22.10;99.90
13174;DHT22;6652;48.802;9.190;2023-07-30T08:20:16;22.30;99.90
13174;DHT22;6652;48.802;9.190;2023-07-30T08:22:43;22.50;99.90
13174;DHT22;6652;48.802;9.190;2023-07-30T08:25:10;22.80;99.90
13174;DHT22;6652;48.802;9.190;2023-07-30T08:27:37;22.90;99.90
13174;DHT22;6652;48.802;9.190;2023-07-30T08:30:04;23.00;99.90
13174;DHT22;6652;48.802;9.190;2023-07-30T08:32:34;23.80;99.90
13174;DHT22;6652;48.802;9.190;2023-07-30T08:35:02;24.90;99.90
13174;DHT22;6652;48.802;9.190;2023-07-30T08:37:29;25.60;99.90
13174;DHT22;6652;48.802;9.190;2023-07-30T08:39:56;25.90;99.90
13174;DHT22;6652;48.802;9.190;2023-07-30T08:42:24;26.00;99.90
13174;DHT22;6652;48.802;9.190;2023-07-30T08:44:51;25.90;99.90
13174;DHT22;6652;48.802;9.190;2023-07-30T08:47:17;26.10;99.90
13174;DHT22;6652;48.802;9.190;2023-07-30T08:49:46;26.40;99.90
13174;DHT22;6652;48.802;9.190;2023-07-30T08:52:13;26.60;99.90
13174;DHT22;6652;48.802;9.190;2023-07-30T08:54:42;26.60;99.90
13174;DHT22;6652;48.802;9.190;2023-07-30T08:57:11;26.90;99.90
13174;DHT22;6652;48.802;9.190;2023-07-30T08:59:42;26.90;99.90
13174;DHT22;6652;48.802;9.190;2023-07-30T09:02:21;27.00;99.90
13174;DHT22;6652;48.802;9.190;2023-07-30T09:04:53;27.50;99.90
13174;DHT22;6652;48.802;9.190;2023-07-30T09:07:24;27.70;99.90
13174;DHT22;6652;48.802;9.190;2023-07-30T09:09:50;27.60;99.90
13174;DHT22;6652;48.802;9.190;2023-07-30T09:12:17;27.30;99.90
13174;DHT22;6652;48.802;9.190;2023-07-30T09:14:46;27.10;99.90
13174;DHT22;6652;48.802;9.190;2023-07-30T09:17:17;26.70;99.90
13174;DHT22;6652;48.802;9.190;2023-07-30T09:19:44;26.10;99.90
13174;DHT22;6652;48.802;9.190;2023-07-30T09:22:14;26.00;99.90
13174;DHT22;6652;48.802;9.190;2023-07-30T09:24:45;26.10;99.90
13174;DHT22;6652;48.802;9.190;2023-07-30T09:27:12;25.60;99.90
13174;DHT22;6652;48.802;9.190;2023-07-30T09:29:53;25.40;99.90
13174;DHT22;6652;48.802;9.190;2023-07-30T09:32:20;25.10;99.90
13174;DHT22;6652;48.802;9.190;2023-07-30T09:34:47;25.30;99.90
13174;DHT22;6652;48.802;9.190;2023-07-30T09:37:16;25.20;99.90
13174;DHT22;6652;48.802;9.190;2023-07-30T09:39:43;24.90;99.90
13174;DHT22;6652;48.802;9.190;2023-07-30T09:42:10;24.70;99.90
13174;DHT22;6652;48.802;9.190;2023-07-30T09:44:38;24.40;99.90
13174;DHT22;6652;48.802;9.190;2023-07-30T09:47:09;24.40;99.90
13174;DHT22;6652;48.802;9.190;2023-07-30T09:49:36;24.50;99.90
13174;DHT22;6652;48.802;9.190;2023-07-30T09:52:04;24.30;99.90
13174;DHT22;6652;48.802;9.190;2023-07-30T09:54:33;24.10;99.90
13174;DHT22;6652;48.802;9.190;2023-07-30T09:56:59;23.90;99.90
13174;DHT22;6652;48.802;9.190;2023-07-30T09:59:28;23.80;99.90
13174;DHT22;6652;48.802;9.190;2023-07-30T10:01:57;23.60;99.90
13174;DHT22;6652;48.802;9.190;2023-07-30T10:04:24;24.00;99.90
13174;DHT22;6652;48.802;9.190;2023-07-30T10:06:56;25.10;99.90
13174;DHT22;6652;48.802;9.190;2023-07-30T10:09:30;25.60;99.90
13174;DHT22;6652;48.802;9.190;2023-07-30T10:11:59;25.40;99.90
13174;DHT22;6652;48.802;9.190;2023-07-30T10:14:26;24.90;99.90
13174;DHT22;6652;48.802;9.190;2023-07-30T10:16:56;25.70;99.90
13174;DHT22;6652;48.802;9.190;2023-07-30T10:19:26;26.80;99.90
13174;DHT22;6652;48.802;9.190;2023-07-30T10:21:57;27.70;99.90
13174;DHT22;6652;48.802;9.190;2023-07-30T10:24:25;27.80;99.90
13174;DHT22;6652;48.802;9.190;2023-07-30T10:26:53;28.00;99.90
13174;DHT22;6652;48.802;9.190;2023-07-30T10:29:24;28.20;99.90
13174;DHT22;6652;48.802;9.190;2023-07-30T10:31:53;27.90;99.90
13174;DHT22;6652;48.802;9.190;2023-07-30T10:34:20;27.70;99.90
13174;DHT22;6652;48.802;9.190;2023-07-30T10:36:49;28.20;99.90
13174;DHT22;6652;48.802;9.190;2023-07-30T10:39:17;28.40;99.90
13174;DHT22;6652;48.802;9.190;2023-07-30T10:41:45;28.60;99.90
13174;DHT22;6652;48.802;9.190;2023-07-30T10:44:24;29.70;99.90
13174;DHT22;6652;48.802;9.190;2023-07-30T10:46:51;29.60;99.10
13174;DHT22;6652;48.802;9.190;2023-07-30T10:49:18;29.70;98.40
13174;DHT22;6652;48.802;9.190;2023-07-30T10:51:44;30.10;97.80
13174;DHT22;6652;48.802;9.190;2023-07-30T10:54:11;29.40;98.10
13174;DHT22;6652;48.802;9.190;2023-07-30T10:56:38;28.80;99.40
13174;DHT22;6652;48.802;9.190;2023-07-30T10:59:06;28.40;99.90
13174;DHT22;6652;48.802;9.190;2023-07-30T11:01:38;28.10;99.90
13174;DHT22;6652;48.802;9.190;2023-07-30T11:04:07;27.70;99.90
13174;DHT22;6652;48.802;9.190;2023-07-30T11:06:35;27.10;99.60
13174;DHT22;6652;48.802;9.190;2023-07-30T11:09:01;26.70;99.90
13174;DHT22;6652;48.802;9.190;2023-07-30T11:11:28;26.40;99.90
13174;DHT22;6652;48.802;9.190;2023-07-30T11:13:55;26.40;99.90
13174;DHT22;6652;48.802;9.190;2023-07-30T11:16:23;26.00;99.90
13174;DHT22;6652;48.802;9.190;2023-07-30T11:18:51;26.00;99.90
13174;DHT22;6652;48.802;9.190;2023-07-30T11:21:18;25.90;99.90
13174;DHT22;6652;48.802;9.190;2023-07-30T11:23:46;25.90;99.90
13174;DHT22;6652;48.802;9.190;2023-07-30T11:26:15;26.00;99.90
13174;DHT22;6652;48.802;9.190;2023-07-30T11:28:43;25.90;99.90
13174;DHT22;6652;48.802;9.190;2023-07-30T11:31:11;25.90;99.90
13174;DHT22;6652;48.802;9.190;2023-07-30T11:33:41;26.00;99.90
13174;DHT22;6652;48.802;9.190;2023-07-30T11:36:11;25.90;99.90
13174;DHT22;6652;48.802;9.190;2023-07-30T11:38:39;25.70;99.90
13174;DHT22;6652;48.802;9.190;2023-07-30T11:41:07;25.70;99.90
13174;DHT22;6652;48.802;9.190;2023-07-30T11:43:37;25.60;99.90
13174;DHT22;6652;48.802;9.190;2023-07-30T11:46:09;25.40;99.90
13174;DHT22;6652;48.802;9.190;2023-07-30T11:48:37;25.40;99.90
13174;DHT22;6652;48.802;9.190;2023-07-30T11:51:04;25.30;99.90
13174;DHT22;6652;48.802;9.190;2023-07-30T11:53:48;25.10;99.90
13174;DHT22;6652;48.802;9.190;2023-07-30T11:56:17;24.90;99.90
13174;DHT22;6652;48.802;9.190;2023-07-30T11:58:44;24.90;99.90
13174;DHT22;6652;48.802;9.190;2023-07-30T12:01:12;24.80;99.90
13174;DHT22;6652;48.802;9.190;2023-07-30T12:03:39;24.90;99.90
13174;DHT22;6652;48.802;9.190;2023-07-30T12:06:07;24.90;99.90
13174;DHT22;6652;48.802;9.190;2023-07-30T12:08:34;25.00;99.90
13174;DHT22;6652;48.802;9.190;2023-07-30T12:11:04;25.00;99.90
13174;DHT22;6652;48.802;9.190;2023-07-30T12:13:32;24.90;99.90
13174;DHT22;6652;48.802;9.190;2023-07-30T12:15:59;24.90;99.90
13174;DHT22;6652;48.802;9.190;2023-07-30T12:18:26;25.10;99.90
13174;DHT22;6652;48.802;9.190;2023-07-30T12:20:55;25.20;99.90
13174;DHT22;6652;48.802;9.190;2023-07-30T12:23:23;25.30;99.90
13174;DHT22;6652;48.802;9.190;2023-07-30T12:25:50;25.30;99.90
13174;DHT22;6652;48.802;9.190;2023-07-30T12:28:19;25.30;99.90
13174;DHT22;6652;48.802;9.190;2023-07-30T12:30:46;25.40;99.90
13174;DHT22;6652;48.802;9.190;2023-07-30T12:33:13;25.60;99.90
13174;DHT22;6652;48.802;9.190;2023-07-30T12:35:40;25.80;99.90
13174;DHT22;6652;48.802;9.190;2023-07-30T12:38:07;26.00;99.90
13174;DHT22;6652;48.802;9.190;2023-07-30T12:40:34;26.10;99.90
13174;DHT22;6652;48.802;9.190;2023-07-30T12:43:02;26.40;99.90
13174;DHT22;6652;48.802;9.190;2023-07-30T12:45:31;26.30;99.90
13174;DHT22;6652;48.802;9.190;2023-07-30T12:48:00;26.10;99.90
13174;DHT22;6652;48.802;9.190;2023-07-30T12:50:29;25.80;99.90
13174;DHT22;6652;48.802;9.190;2023-07-30T12:52:56;25.80;99.90
13174;DHT22;6652;48.802;9.190;2023-07-30T12:55:25;25.70;99.90
13174;DHT22;6652;48.802;9.190;2023-07-30T12:58:15;25.80;99.90
13174;DHT22;6652;48.802;9.190;2023-07-30T13:00:47;25.70;99.90
13174;DHT22;6652;48.802;9.190;2023-07-30T13:03:14;25.50;99.90
13174;DHT22;6652;48.802;9.190;2023-07-30T13:05:42;25.20;99.90
13174;DHT22;6652;48.802;9.190;2023-07-30T13:08:11;25.10;99.90
13174;DHT22;6652;48.802;9.190;2023-07-30T13:10:38;25.20;99.90
13174;DHT22;6652;48.802;9.190;2023-07-30T13:13:07;25.10;99.90
13174;DHT22;6652;48.802;9.190;2023-07-30T13:15:35;25.10;99.90
13174;DHT22;6652;48.802;9.190;2023-07-30T13:18:04;25.70;99.90
13174;DHT22;6652;48.802;9.190;2023-07-30T13:20:34;25.60;99.90
13174;DHT22;6652;48.802;9.190;2023-07-30T13:23:01;25.90;99.90
13174;DHT22;6652;48.802;9.190;2023-07-30T13:25:28;26.30;99.90
13174;DHT22;6652;48.802;9.190;2023-07-30T13:27:55;25.80;99.90
13174;DHT22;6652;48.802;9.190;2023-07-30T13:30:24;26.30;99.90
13174;DHT22;6652;48.802;9.190;2023-07-30T13:32:51;26.30;99.90
13174;DHT22;6652;48.802;9.190;2023-07-30T13:35:19;26.00;98.50
13174;DHT22;6652;48.802;9.190;2023-07-30T13:37:46;25.80;98.50
13174;DHT22;6652;48.802;9.190;2023-07-30T13:40:13;25.60;98.50
13174;DHT22;6652;48.802;9.190;2023-07-30T13:42:40;25.50;98.40
13174;DHT22;6652;48.802;9.190;2023-07-30T13:45:08;25.40;99.00
13174;DHT22;6652;48.802;9.190;2023-07-30T13:47:35;25.50;99.20
13174;DHT22;6652;48.802;9.190;2023-07-30T13:50:02;25.60;99.20
13174;DHT22;6652;48.802;9.190;2023-07-30T13:52:30;25.60;98.70
13174;DHT22;6652;48.802;9.190;2023-07-30T13:54:57;26.20;99.20
13174;DHT22;6652;48.802;9.190;2023-07-30T13:57:25;26.20;98.60
13174;DHT22;6652;48.802;9.190;2023-07-30T13:59:52;26.40;97.70
13174;DHT22;6652;48.802;9.190;2023-07-30T14:02:19;26.40;97.90
13174;DHT22;6652;48.802;9.190;2023-07-30T14:04:46;26.10;97.30
13174;DHT22;6652;48.802;9.190;2023-07-30T14:07:13;26.00;97.70
13174;DHT22;6652;48.802;9.190;2023-07-30T14:09:43;25.90;97.70
13174;DHT22;6652;48.802;9.190;2023-07-30T14:12:10;25.80;98.00
13174;DHT22;6652;48.802;9.190;2023-07-30T14:14:37;25.70;98.50
13174;DHT22;6652;48.802;9.190;2023-07-30T14:17:04;25.70;98.60
13174;DHT22;6652;48.802;9.190;2023-07-30T14:19:32;25.60;98.10
13174;DHT22;6652;48.802;9.190;2023-07-30T14:21:59;25.50;99.00
13174;DHT22;6652;48.802;9.190;2023-07-30T14:24:26;25.60;99.00
13174;DHT22;6652;48.802;9.190;2023-07-30T14:26:55;25.50;98.20
13174;DHT22;6652;48.802;9.190;2023-07-30T14:29:22;25.40;98.30
13174;DHT22;6652;48.802;9.190;2023-07-30T14:31:49;25.30;97.60
13174;DHT22;6652;48.802;9.190;2023-07-30T14:34:16;25.10;98.00
13174;DHT22;6652;48.802;9.190;2023-07-30T14:36:43;25.50;98.10
13174;DHT22;6652;48.802;9.190;2023-07-30T14:39:10;24.90;98.10
13174;DHT22;6652;48.802;9.190;2023-07-30T14:42:06;25.00;98.40
13174;DHT22;6652;48.802;9.190;2023-07-30T14:44:33;24.80;99.10
13174;DHT22;6652;48.802;9.190;2023-07-30T14:47:01;24.80;98.90
13174;DHT22;6652;48.802;9.190;2023-07-30T14:49:30;25.30;98.70
13174;DHT22;6652;48.802;9.190;2023-07-30T14:51:58;24.80;98.70
13174;DHT22;6652;48.802;9.190;2023-07-30T14:54:25;24.80;98.20
13174;DHT22;6652;48.802;9.190;2023-07-30T14:56:52;24.80;97.60
13174;DHT22;6652;48.802;9.190;2023-07-30T14:59:22;24.70;97.90
13174;DHT22;6652;48.802;9.190;2023-07-30T15:01:49;24.60;97.50
13174;DHT22;6652;48.802;9.190;2023-07-30T15:04:15;24.60;97.60
13174;DHT22;6652;48.802;9.190;2023-07-30T15:06:42;24.50;97.40
13174;DHT22;6652;48.802;9.190;2023-07-30T15:09:10;24.50;96.80
13174;DHT22;6652;48.802;9.190;2023-07-30T15:11:37;24.60;96.40
13174;DHT22;6652;48.802;9.190;2023-07-30T15:14:04;24.50;96.80
13174;DHT22;6652;48.802;9.190;2023-07-30T15:16:32;24.60;96.70
13174;DHT22;6652;48.802;9.190;2023-07-30T15:18:59;24.60;96.20
13174;DHT22;6652;48.802;9.190;2023-07-30T15:21:26;24.60;96.10
13174;DHT22;6652;48.802;9.190;2023-07-30T15:23:54;24.70;95.90
13174;DHT22;6652;48.802;9.190;2023-07-30T15:26:21;24.60;95.90
13174;DHT22;6652;48.802;9.190;2023-07-30T15:28:48;24.50;95.80
13174;DHT22;6652;48.802;9.190;2023-07-30T15:31:15;24.90;96.40
13174;DHT22;6652;48.802;9.190;2023-07-30T15:33:43;24.50;96.40
13174;DHT22;6652;48.802;9.190;2023-07-30T15:36:10;24.60;96.60
13174;DHT22;6652;48.802;9.190;2023-07-30T15:38:37;24.30;95.10
13174;DHT22;6652;48.802;9.190;2023-07-30T15:41:04;24.00;95.10
13174;DHT22;6652;48.802;9.190;2023-07-30T15:43:31;23.90;94.70
13174;DHT22;6652;48.802;9.190;2023-07-30T15:45:58;23.90;94.70
13174;DHT22;6652;48.802;9.190;2023-07-30T15:48:27;23.80;94.70
13174;DHT22;6652;48.802;9.190;2023-07-30T15:50:56;23.80;94.60
13174;DHT22;6652;48.802;9.190;2023-07-30T15:53:23;23.70;94.60
13174;DHT22;6652;48.802;9.190;2023-07-30T15:55:50;23.60;94.50
13174;DHT22;6652;48.802;9.190;2023-07-30T15:58:17;23.60;94.80
13174;DHT22;6652;48.802;9.190;2023-07-30T16:00:50;23.30;94.90
13174;DHT22;6652;48.802;9.190;2023-07-30T16:03:17;23.50;95.00
13174;DHT22;6652;48.802;9.190;2023-07-30T16:05:48;23.50;94.20
13174;DHT22;6652;48.802;9.190;2023-07-30T16:08:22;23.40;94.40
13174;DHT22;6652;48.802;9.190;2023-07-30T16:10:49;23.30;94.40